Time;durP1;ratioP1;P1;durP2;ratioP2;P2;SDS_P1;SDS_P2;PMS_P1;PMS_P2;Temp;Humidity;BMP_temperature;BMP_pressure;BME280_temperature;BME280_humidity;BME280_pressure;Samples;Min_cycle;Max_cycle;Signal;HPM_P1;HPM_P2
2023/10/04 00:00:20;;;;;;;2.10;1.07;;;10.40;98.80;;;;;;5010825;28;21087;-62
2023/10/04 00:02:50;;;;;;;9.97;1.23;;;10.50;99.20;;;;;;5004902;28;21135;-63
2023/10/04 00:05:17;;;;;;;4.00;1.83;;;10.50;99.20;;;;;;5005276;28;20564;-66
2023/10/04 00:07:46;;;;;;;14.60;1.90;;;10.40;99.90;;;;;;5013028;28;21029;-68
2023/10/04 00:10:13;;;;;;;2.73;1.20;;;10.40;99.90;;;;;;5016022;28;20891;-66
2023/10/04 00:12:42;;;;;;;2.17;1.43;;;10.30;99.90;;;;;;5013974;28;20974;-66
2023/10/04 00:15:11;;;;;;;8.10;2.30;;;10.20;99.90;;;;;;5011607;28;20504;-68
2023/10/04 00:17:40;;;;;;;6.40;1.60;;;10.10;99.80;;;;;;5010629;28;20500;-66
2023/10/04 00:20:10;;;;;;;3.70;1.07;;;10.10;99.20;;;;;;5014022;28;20481;-68
2023/10/04 00:22:39;;;;;;;1.60;0.80;;;9.90;99.20;;;;;;5006166;28;20496;-67
2023/10/04 00:25:06;;;;;;;2.67;1.37;;;9.90;99.30;;;;;;5015647;28;20485;-68
2023/10/04 00:27:32;;;;;;;2.13;1.47;;;9.80;99.90;;;;;;5013150;28;20488;-67
2023/10/04 00:29:59;;;;;;;3.50;1.27;;;9.80;99.90;;;;;;5003213;28;20492;-68
2023/10/04 00:32:27;;;;;;;5.70;1.53;;;9.70;99.90;;;;;;5008646;28;20847;-68
2023/10/04 00:34:54;;;;;;;5.97;1.20;;;;;;;;;;5008512;28;20468;-63
2023/10/04 00:37:22;;;;;;;2.00;1.20;;;9.70;99.90;;;;;;5009782;28;20487;-62
2023/10/04 00:39:50;;;;;;;7.27;1.70;;;9.60;99.50;;;;;;5014990;28;20485;-62
2023/10/04 00:42:19;;;;;;;7.23;1.47;;;9.50;99.90;;;;;;5013906;28;20846;-63
2023/10/04 00:44:47;;;;;;;1.97;1.13;;;9.50;99.90;;;;;;5004465;28;20530;-68
2023/10/04 00:47:16;;;;;;;4.17;1.47;;;9.40;99.90;;;;;;5013932;28;20484;-66
2023/10/04 00:49:45;;;;;;;2.07;1.00;;;9.40;99.90;;;;;;5011248;28;20489;-68
2023/10/04 00:52:13;;;;;;;2.40;1.20;;;;;;;;;;5012210;28;21065;-66
2023/10/04 00:54:41;;;;;;;2.70;1.83;;;9.40;99.90;;;;;;5010284;28;21009;-67
2023/10/04 00:57:10;;;;;;;5.20;1.67;;;9.50;99.90;;;;;;5012398;28;20819;-68
2023/10/04 00:59:36;;;;;;;3.70;2.03;;;9.60;99.90;;;;;;5008334;28;20476;-66
2023/10/04 01:02:03;;;;;;;2.10;1.40;;;9.70;99.90;;;;;;5021408;28;20484;-66
2023/10/04 01:04:30;;;;;;;2.90;1.20;;;9.60;99.90;;;;;;5013572;28;20495;-68
2023/10/04 01:06:57;;;;;;;9.10;1.57;;;9.40;99.90;;;;;;5003975;28;20546;-67
2023/10/04 01:09:24;;;;;;;37.90;3.47;;;9.40;99.90;;;;;;5010657;28;20480;-67
2023/10/04 01:11:52;;;;;;;2.70;1.10;;;9.50;99.90;;;;;;5021761;28;20484;-65
2023/10/04 01:14:25;;;;;;;5.43;1.30;;;9.60;99.60;;;;;;5012721;28;20543;-62
2023/10/04 01:16:53;;;;;;;5.40;1.20;;;9.80;99.40;;;;;;5003812;28;20526;-62
2023/10/04 01:19:22;;;;;;;1.70;0.90;;;9.70;98.80;;;;;;5018619;28;20479;-63
2023/10/04 01:21:49;;;;;;;2.00;1.00;;;9.70;99.00;;;;;;5012730;28;20473;-62
2023/10/04 01:24:19;;;;;;;6.90;1.50;;;9.60;99.90;;;;;;5012550;28;20577;-62
2023/10/04 01:26:46;;;;;;;3.60;1.43;;;9.50;99.90;;;;;;5016838;28;20565;-62
2023/10/04 01:29:15;;;;;;;4.33;1.67;;;9.40;99.60;;;;;;5016767;28;20488;-62
2023/10/04 01:31:42;;;;;;;3.37;1.60;;;9.30;99.90;;;;;;5020403;28;20473;-62
2023/10/04 01:34:13;;;;;;;2.67;1.13;;;9.30;99.90;;;;;;5003673;28;20574;-62
2023/10/04 01:36:41;;;;;;;2.10;1.17;;;9.40;99.90;;;;;;5003026;28;20464;-61
2023/10/04 01:39:15;;;;;;;10.53;2.27;;;9.30;99.50;;;;;;5018932;28;20943;-63
2023/10/04 01:41:43;;;;;;;4.20;1.40;;;9.30;99.50;;;;;;5016343;28;20465;-63
2023/10/04 01:44:10;;;;;;;4.00;1.27;;;9.30;99.70;;;;;;5015841;28;20497;-67
2023/10/04 01:46:37;;;;;;;3.83;1.73;;;9.40;99.60;;;;;;5014050;28;20472;-67
2023/10/04 01:49:07;;;;;;;5.60;1.03;;;9.50;99.30;;;;;;5017455;28;21080;-66
2023/10/04 01:51:34;;;;;;;2.93;1.23;;;9.60;98.80;;;;;;5018107;28;20477;-66
2023/10/04 01:54:06;;;;;;;6.13;1.13;;;9.70;98.90;;;;;;5013009;28;20483;-67
2023/10/04 01:56:33;;;;;;;2.40;1.40;;;9.70;98.90;;;;;;5017953;28;21057;-67
2023/10/04 01:59:02;;;;;;;6.53;2.37;;;9.80;99.00;;;;;;5016457;28;21066;-68
2023/10/04 02:01:29;;;;;;;2.00;1.30;;;9.80;99.40;;;;;;5019015;28;20981;-68
2023/10/04 02:03:56;;;;;;;2.80;1.30;;;9.80;99.10;;;;;;5023737;28;20476;-67
2023/10/04 02:06:23;;;;;;;2.67;1.73;;;9.80;99.20;;;;;;5020286;28;20506;-66
2023/10/04 02:08:49;;;;;;;2.37;1.20;;;9.70;99.90;;;;;;5010479;28;20951;-67
2023/10/04 02:11:16;;;;;;;1.80;1.40;;;9.80;99.90;;;;;;5017335;28;20477;-66
2023/10/04 02:13:43;;;;;;;1.90;1.13;;;9.80;99.40;;;;;;5017344;28;21054;-67
2023/10/04 02:16:19;;;;;;;2.10;1.10;;;9.70;99.60;;;;;;5016244;28;20926;-68
2023/10/04 02:18:47;;;;;;;6.80;1.47;;;9.70;99.90;;;;;;5019777;28;20472;-67
2023/10/04 02:21:13;;;;;;;2.10;1.27;;;9.70;99.90;;;;;;5019258;28;20567;-65
2023/10/04 02:23:42;;;;;;;2.43;1.20;;;9.80;99.90;;;;;;5016333;28;20477;-67
2023/10/04 02:26:09;;;;;;;6.87;1.90;;;9.90;99.90;;;;;;5016771;28;21064;-61
2023/10/04 02:28:36;;;;;;;1.90;0.83;;;10.00;99.50;;;;;;5016014;28;20476;-62
2023/10/04 02:31:03;;;;;;;1.90;1.13;;;9.90;98.70;;;;;;5008699;28;20849;-62
2023/10/04 02:33:32;;;;;;;7.97;1.57;;;9.90;98.50;;;;;;5034290;28;20472;-62
2023/10/04 02:36:00;;;;;;;3.50;1.63;;;9.90;98.40;;;;;;5009738;28;20468;-62
2023/10/04 02:38:29;;;;;;;4.90;0.90;;;9.90;98.00;;;;;;5021283;28;20481;-63
2023/10/04 02:40:56;;;;;;;2.77;1.73;;;9.90;98.80;;;;;;5024714;28;21011;-62
2023/10/04 02:43:26;;;;;;;2.43;1.10;;;9.90;99.00;;;;;;5021019;28;20540;-63
2023/10/04 02:45:53;;;;;;;27.13;2.50;;;9.60;99.60;;;;;;5020753;28;21030;-63
2023/10/04 02:48:21;;;;;;;4.13;1.20;;;9.50;99.70;;;;;;5021421;28;20477;-62
2023/10/04 02:50:49;;;;;;;2.07;1.33;;;9.50;99.20;;;;;;5021508;28;20487;-62
2023/10/04 02:53:19;;;;;;;18.63;1.80;;;9.60;98.90;;;;;;5019717;28;20485;-62
2023/10/04 02:55:47;;;;;;;2.20;1.00;;;9.50;98.90;;;;;;5018407;28;20485;-62
2023/10/04 02:58:16;;;;;;;13.57;1.60;;;9.50;99.00;;;;;;5014285;28;21037;-62
2023/10/04 03:00:44;;;;;;;4.73;2.03;;;9.40;99.30;;;;;;5014811;28;20575;-62
2023/10/04 03:03:12;;;;;;;3.20;1.43;;;9.40;99.10;;;;;;5008792;28;20618;-63
2023/10/04 03:05:40;;;;;;;3.80;1.50;;;9.40;98.40;;;;;;5008258;28;20492;-62
2023/10/04 03:08:08;;;;;;;20.37;1.80;;;9.10;98.20;;;;;;5015763;28;20548;-62
2023/10/04 03:10:36;;;;;;;2.23;1.03;;;9.00;98.80;;;;;;5014409;28;20570;-61
2023/10/04 03:13:11;;;;;;;1.60;0.80;;;8.90;98.80;;;;;;5004251;28;20476;-61
2023/10/04 03:15:38;;;;;;;8.43;1.87;;;8.80;99.00;;;;;;5026741;28;20479;-62
2023/10/04 03:18:13;;;;;;;7.80;1.70;;;8.60;99.90;;;;;;5019078;28;20819;-61
2023/10/04 03:20:47;;;;;;;15.43;2.33;;;8.60;99.90;;;;;;5020675;28;20769;-61
2023/10/04 03:23:18;;;;;;;4.20;1.60;;;8.70;99.90;;;;;;5007185;28;20809;-61
2023/10/04 03:25:46;;;;;;;1.70;0.97;;;8.80;99.90;;;;;;5016590;28;20477;-62
2023/10/04 03:28:14;;;;;;;7.03;1.43;;;9.00;99.90;;;;;;5017116;28;21169;-61
2023/10/04 03:30:43;;;;;;;2.47;1.20;;;9.10;99.90;;;;;;5019304;28;20526;-62
2023/10/04 03:33:10;;;;;;;3.10;1.17;;;9.20;99.70;;;;;;5021749;28;20481;-61
2023/10/04 03:35:39;;;;;;;1.90;1.00;;;9.20;99.00;;;;;;5019264;28;21013;-61
2023/10/04 03:38:06;;;;;;;2.63;1.17;;;9.20;98.80;;;;;;5020113;28;20488;-61
2023/10/04 03:40:36;;;;;;;1.70;0.93;;;9.20;98.80;;;;;;5018804;28;20488;-61
2023/10/04 03:43:05;;;;;;;8.07;1.40;;;9.30;98.40;;;;;;5017159;28;20727;-62
2023/10/04 03:45:32;;;;;;;2.43;1.67;;;9.30;98.20;;;;;;5018370;28;20493;-63
2023/10/04 03:48:00;;;;;;;26.97;2.20;;;;;;;;;;5012049;28;20930;-63
2023/10/04 03:50:27;;;;;;;5.30;1.93;;;9.30;97.90;;;;;;5029181;28;20484;-62
2023/10/04 03:52:57;;;;;;;3.10;1.83;;;9.20;97.60;;;;;;5019371;28;20499;-61
2023/10/04 03:55:26;;;;;;;8.73;1.43;;;9.00;97.40;;;;;;5019447;28;20496;-62
2023/10/04 03:57:54;;;;;;;7.53;1.17;;;8.90;97.50;;;;;;5020403;28;21327;-63
2023/10/04 04:00:23;;;;;;;4.23;0.90;;;8.80;97.50;;;;;;5018531;28;20469;-62
2023/10/04 04:02:51;;;;;;;2.50;1.50;;;8.70;98.10;;;;;;5018391;28;20477;-62
2023/10/04 04:05:21;;;;;;;3.57;1.73;;;8.80;98.00;;;;;;5018579;28;20504;-67
2023/10/04 04:07:48;;;;;;;6.50;1.80;;;8.80;97.80;;;;;;5008080;28;20486;-67
2023/10/04 04:10:16;;;;;;;3.13;1.80;;;8.80;97.70;;;;;;5019773;28;20576;-68
2023/10/04 04:12:46;;;;;;;4.17;1.53;;;8.80;98.60;;;;;;5013444;28;20488;-67
2023/10/04 04:15:15;;;;;;;32.23;3.17;;;8.80;99.90;;;;;;5011421;28;20602;-68
2023/10/04 04:17:45;;;;;;;5.00;1.00;;;8.80;99.50;;;;;;5023273;28;20915;-67
2023/10/04 04:20:14;;;;;;;9.80;1.13;;;8.90;99.00;;;;;;5018684;28;20476;-67
2023/10/04 04:22:45;;;;;;;12.40;1.53;;;9.00;98.70;;;;;;5011366;28;20479;-68
2023/10/04 04:25:15;;;;;;;1.80;1.00;;;9.00;98.30;;;;;;5016275;28;20894;-66
2023/10/04 04:27:45;;;;;;;2.10;1.20;;;9.00;97.90;;;;;;5018152;28;20485;-67
2023/10/04 04:30:19;;;;;;;2.50;1.57;;;8.80;99.00;;;;;;5018787;28;20861;-68
2023/10/04 04:32:47;;;;;;;1.87;1.03;;;8.60;98.80;;;;;;5015917;28;20515;-67
2023/10/04 04:35:19;;;;;;;4.87;0.90;;;8.60;99.10;;;;;;5016827;28;20489;-67
2023/10/04 04:37:47;;;;;;;3.07;1.23;;;8.70;98.80;;;;;;5018845;28;20851;-68
2023/10/04 04:40:21;;;;;;;2.37;0.90;;;8.70;99.00;;;;;;5017874;28;20539;-68
2023/10/04 04:42:48;;;;;;;25.30;5.83;;;8.80;99.90;;;;;;5016737;28;20476;-68
2023/10/04 04:45:17;;;;;;;1.70;0.90;;;8.80;99.50;;;;;;5014845;28;20476;-61
2023/10/04 04:47:44;;;;;;;11.40;2.30;;;8.80;98.40;;;;;;5023668;28;20504;-61
2023/10/04 04:50:12;;;;;;;10.63;1.27;;;8.80;98.20;;;;;;5015227;28;20484;-63
2023/10/04 04:52:41;;;;;;;1.70;0.90;;;8.80;98.00;;;;;;5015154;28;20465;-61
2023/10/04 04:55:10;;;;;;;6.53;0.90;;;8.70;97.60;;;;;;5017815;28;20484;-62
2023/10/04 04:57:37;;;;;;;8.00;1.53;;;8.60;98.00;;;;;;5018217;28;20480;-62
2023/10/04 05:00:30;;;;;;;3.63;1.97;;;8.50;98.20;;;;;;5010023;28;20859;-62
2023/10/04 05:02:53;;;;;;;2.97;1.30;;;8.40;98.60;;;;;;4999624;28;20477;-62
2023/10/04 05:05:20;;;;;;;7.10;1.93;;;8.40;99.90;;;;;;5007051;28;20522;-62
2023/10/04 05:07:47;;;;;;;3.30;1.33;;;8.40;99.90;;;;;;5026581;28;20568;-61
2023/10/04 05:10:17;;;;;;;7.03;1.90;;;8.50;99.60;;;;;;5017836;28;20568;-62
2023/10/04 05:12:46;;;;;;;2.87;1.50;;;8.60;99.50;;;;;;5017401;28;20539;-61
2023/10/04 05:15:21;;;;;;;10.23;1.57;;;8.60;98.60;;;;;;5017967;28;20488;-66
2023/10/04 05:17:50;;;;;;;1.97;0.73;;;8.70;98.60;;;;;;5017442;28;20526;-67
2023/10/04 05:20:21;;;;;;;6.83;2.20;;;;;;;;;;5018348;28;20642;-68
2023/10/04 05:22:49;;;;;;;2.83;1.40;;;8.80;98.50;;;;;;5016659;28;20487;-67
2023/10/04 05:25:16;;;;;;;3.50;2.17;;;8.70;99.00;;;;;;5013334;28;21832;-68
2023/10/04 05:27:45;;;;;;;7.17;1.97;;;8.70;98.90;;;;;;5012666;28;21091;-67
2023/10/04 05:30:15;;;;;;;5.20;1.20;;;8.70;98.40;;;;;;5017086;28;20904;-68
2023/10/04 05:32:42;;;;;;;2.27;1.43;;;8.70;98.20;;;;;;5016276;28;20472;-67
2023/10/04 05:35:12;;;;;;;2.63;1.20;;;8.80;98.20;;;;;;5021536;28;20504;-67
2023/10/04 05:37:41;;;;;;;2.50;1.10;;;;;;;;;;5016379;28;20480;-68
2023/10/04 05:40:16;;;;;;;15.33;1.83;;;8.80;98.00;;;;;;5017671;28;20489;-66
2023/10/04 05:42:44;;;;;;;9.27;1.90;;;8.80;98.00;;;;;;5016823;28;20475;-68
2023/10/04 05:45:12;;;;;;;12.70;2.50;;;8.80;98.10;;;;;;5023783;28;20567;-66
2023/10/04 05:47:39;;;;;;;2.30;1.23;;;8.80;98.20;;;;;;5017063;28;20905;-67
2023/10/04 05:50:08;;;;;;;7.20;2.63;;;8.80;97.80;;;;;;5014788;28;20542;-68
2023/10/04 05:52:35;;;;;;;6.40;2.77;;;8.80;97.80;;;;;;5015073;28;20523;-67
2023/10/04 05:55:04;;;;;;;8.80;1.83;;;8.80;97.80;;;;;;5014789;28;20478;-67
2023/10/04 05:57:31;;;;;;;3.80;1.90;;;8.80;97.60;;;;;;5016815;28;20485;-66
2023/10/04 05:59:58;;;;;;;5.43;1.40;;;8.80;97.90;;;;;;5018595;28;20484;-66
2023/10/04 06:02:25;;;;;;;4.50;1.90;;;8.80;97.80;;;;;;5021587;28;21260;-67
2023/10/04 06:04:53;;;;;;;2.93;1.77;;;8.80;97.80;;;;;;5019354;28;20492;-62
2023/10/04 06:07:19;;;;;;;2.87;1.80;;;8.80;97.50;;;;;;5016737;28;20488;-62
2023/10/04 06:09:46;;;;;;;7.13;1.13;;;8.80;97.40;;;;;;5015935;28;20476;-62
2023/10/04 06:12:15;;;;;;;23.70;2.43;;;8.80;97.50;;;;;;5017392;28;20484;-63
2023/10/04 06:14:42;;;;;;;6.13;2.00;;;8.90;97.80;;;;;;5017771;28;20488;-63
2023/10/04 06:17:10;;;;;;;11.43;2.23;;;8.90;98.10;;;;;;5012542;28;20491;-62
2023/10/04 06:19:37;;;;;;;9.70;2.57;;;9.00;98.20;;;;;;5028220;28;20472;-62
2023/10/04 06:22:04;;;;;;;3.93;2.30;;;9.00;98.40;;;;;;5016531;28;20542;-62
2023/10/04 06:24:31;;;;;;;4.60;2.13;;;9.00;98.10;;;;;;5026096;28;20492;-67
2023/10/04 06:26:58;;;;;;;3.97;1.83;;;9.00;98.00;;;;;;5021919;28;20476;-66
2023/10/04 06:29:27;;;;;;;12.23;3.60;;;9.10;98.00;;;;;;5016355;28;20483;-69
2023/10/04 06:31:53;;;;;;;2.60;1.83;;;9.10;98.20;;;;;;5018817;28;21010;-66
2023/10/04 06:34:20;;;;;;;6.10;1.60;;;9.10;97.90;;;;;;5014588;28;20857;-69
2023/10/04 06:36:47;;;;;;;3.50;2.30;;;9.20;98.20;;;;;;5018297;28;20484;-65
2023/10/04 06:39:14;;;;;;;2.37;1.87;;;9.20;98.30;;;;;;5020768;28;20488;-66
2023/10/04 06:41:41;;;;;;;2.90;2.60;;;10.10;99.40;;;;;;5017599;28;20480;-68
2023/10/04 06:44:08;;;;;;;6.20;2.70;;;10.80;99.40;;;;;;5020563;28;20898;-68
2023/10/04 06:46:36;;;;;;;14.23;3.20;;;12.40;98.10;;;;;;5018759;28;20551;-68
2023/10/04 06:49:05;;;;;;;6.77;3.63;;;13.40;96.60;;;;;;5019064;28;21147;-66
2023/10/04 06:51:31;;;;;;;28.93;4.57;;;14.50;95.00;;;;;;5019585;28;20614;-69
2023/10/04 06:53:58;;;;;;;13.80;4.80;;;15.50;94.30;;;;;;5020603;28;20939;-69
2023/10/04 06:56:25;;;;;;;11.17;3.70;;;16.40;94.10;;;;;;5019057;28;20504;-68
2023/10/04 06:58:51;;;;;;;9.87;4.90;;;16.50;94.20;;;;;;5025090;28;20480;-70
2023/10/04 07:01:18;;;;;;;6.93;4.70;;;17.80;93.90;;;;;;5020127;28;20488;-70
2023/10/04 07:03:46;;;;;;;9.60;3.60;;;18.50;93.30;;;;;;5017135;28;20538;-64
2023/10/04 07:06:13;;;;;;;17.17;4.30;;;19.20;92.70;;;;;;5019312;28;20480;-69
2023/10/04 07:08:40;;;;;;;9.00;4.13;;;19.40;91.40;;;;;;5010855;28;20535;-70
2023/10/04 07:11:07;;;;;;;5.67;3.47;;;19.30;91.10;;;;;;5019333;28;20492;-69
2023/10/04 07:13:34;;;;;;;6.23;2.63;;;19.10;90.90;;;;;;5020286;28;20477;-68
2023/10/04 07:16:01;;;;;;;14.57;3.83;;;18.30;90.90;;;;;;5019533;28;20542;-63
2023/10/04 07:18:28;;;;;;;2.60;2.40;;;17.90;91.30;;;;;;5019417;28;20472;-64
2023/10/04 07:20:57;;;;;;;6.00;3.07;;;16.60;92.20;;;;;;5020715;28;20589;-65
2023/10/04 07:23:24;;;;;;;11.13;3.03;;;16.00;93.30;;;;;;5020678;28;21392;-64
2023/10/04 07:25:51;;;;;;;13.07;2.87;;;15.50;94.30;;;;;;5018394;28;21004;-70
2023/10/04 07:28:18;;;;;;;8.93;3.00;;;15.40;95.30;;;;;;5018149;28;20478;-69
2023/10/04 07:30:45;;;;;;;3.83;3.17;;;15.70;95.90;;;;;;5018815;28;21117;-70
2023/10/04 07:33:12;;;;;;;5.03;3.10;;;16.10;95.30;;;;;;5021037;28;21021;-70
2023/10/04 07:35:39;;;;;;;14.47;3.60;;;16.80;95.70;;;;;;5010576;28;20563;-69
2023/10/04 07:38:07;;;;;;;5.53;2.70;;;17.20;95.10;;;;;;5033321;28;21027;-70
2023/10/04 07:40:35;;;;;;;5.83;3.23;;;17.40;95.00;;;;;;5021187;28;20484;-68
2023/10/04 07:43:02;;;;;;;5.90;3.13;;;17.80;94.40;;;;;;5018528;28;20484;-70
2023/10/04 07:45:29;;;;;;;9.43;3.43;;;18.40;94.80;;;;;;5020081;28;20477;-69
2023/10/04 07:47:56;;;;;;;6.80;3.33;;;18.50;94.60;;;;;;5018436;28;20481;-70
2023/10/04 07:50:24;;;;;;;4.13;2.40;;;18.90;93.80;;;;;;5019942;28;20477;-71
2023/10/04 07:52:54;;;;;;;6.30;3.00;;;18.70;93.50;;;;;;5018728;28;20536;-71
2023/10/04 07:55:22;;;;;;;5.47;2.73;;;18.60;93.60;;;;;;5009918;28;20483;-70
2023/10/04 07:57:50;;;;;;;11.03;2.80;;;18.10;93.60;;;;;;5023649;28;20510;-68
2023/10/04 08:00:18;;;;;;;4.50;2.50;;;17.80;94.00;;;;;;5002351;28;21076;-70
2023/10/04 08:02:49;;;;;;;13.70;2.50;;;17.60;94.20;;;;;;5029277;28;20517;-69
2023/10/04 08:05:19;;;;;;;5.70;2.80;;;17.40;94.60;;;;;;5021128;28;20990;-68
2023/10/04 08:07:46;;;;;;;4.27;2.73;;;17.30;94.50;;;;;;5018682;28;21062;-69
2023/10/04 08:10:13;;;;;;;4.57;3.20;;;16.80;94.70;;;;;;5008791;28;20485;-68
2023/10/04 08:12:42;;;;;;;14.00;3.30;;;16.40;95.60;;;;;;5015944;28;21173;-69
2023/10/04 08:15:13;;;;;;;7.83;3.00;;;16.10;95.90;;;;;;5003236;28;21220;-70
2023/10/04 08:17:42;;;;;;;9.30;3.50;;;16.10;96.70;;;;;;5003412;28;20504;-67
2023/10/04 08:20:12;;;;;;;7.63;3.50;;;16.10;97.10;;;;;;5015043;28;20507;-69
2023/10/04 08:22:39;;;;;;;8.90;3.07;;;16.00;96.70;;;;;;5016637;28;21030;-68
2023/10/04 08:25:07;;;;;;;7.20;3.23;;;16.10;97.30;;;;;;5019600;28;20477;-68
2023/10/04 08:27:34;;;;;;;3.90;2.67;;;16.20;97.40;;;;;;5015417;28;20513;-70
2023/10/04 08:30:04;;;;;;;19.03;3.80;;;16.50;97.70;;;;;;5018425;28;20477;-69
2023/10/04 08:32:30;;;;;;;4.73;3.17;;;16.60;97.20;;;;;;5019334;28;20685;-70
2023/10/04 08:34:59;;;;;;;3.33;2.43;;;16.60;97.10;;;;;;5020137;28;20794;-70
2023/10/04 08:37:27;;;;;;;14.80;3.70;;;16.70;97.30;;;;;;5013596;28;21186;-69
2023/10/04 08:39:54;;;;;;;4.33;2.67;;;16.80;97.30;;;;;;5019744;28;20600;-70
2023/10/04 08:42:23;;;;;;;4.33;3.17;;;16.90;96.90;;;;;;5019296;28;20886;-69
2023/10/04 08:44:50;;;;;;;12.53;3.80;;;16.80;96.80;;;;;;5018611;28;20479;-64
2023/10/04 08:47:18;;;;;;;6.30;3.60;;;16.80;97.30;;;;;;5009457;28;20480;-65
2023/10/04 08:49:51;;;;;;;8.83;4.20;;;16.80;97.40;;;;;;5031976;28;20485;-64
2023/10/04 08:52:22;;;;;;;4.03;2.80;;;17.00;98.00;;;;;;5008099;28;20469;-64
2023/10/04 08:54:54;;;;;;;16.07;4.63;;;17.00;97.30;;;;;;5018891;28;20511;-70
2023/10/04 08:57:21;;;;;;;7.77;3.20;;;17.10;98.10;;;;;;5021084;28;20572;-72
2023/10/04 08:59:49;;;;;;;7.87;3.13;;;17.30;99.40;;;;;;5015837;28;20473;-71
2023/10/04 09:02:16;;;;;;;22.63;3.83;;;17.60;98.50;;;;;;5015953;28;20492;-71
2023/10/04 09:04:46;;;;;;;18.57;3.80;;;18.00;97.30;;;;;;5014376;28;21027;-68
2023/10/04 09:07:13;;;;;;;4.10;2.27;;;18.00;97.30;;;;;;5004560;28;20736;-71
2023/10/04 09:09:40;;;;;;;9.20;2.37;;;18.00;96.80;;;;;;5019816;28;20473;-71
2023/10/04 09:12:07;;;;;;;8.10;3.10;;;17.80;96.50;;;;;;5014848;28;20473;-70
2023/10/04 09:14:36;;;;;;;7.20;2.10;;;17.80;96.40;;;;;;5019055;28;20485;-71
2023/10/04 09:17:07;;;;;;;6.63;3.00;;;17.50;96.10;;;;;;5017725;28;20553;-69
2023/10/04 09:19:35;;;;;;;6.70;2.33;;;17.50;96.80;;;;;;5018301;28;20486;-69
2023/10/04 09:22:07;;;;;;;6.40;2.40;;;17.50;97.30;;;;;;5012754;28;20519;-69
2023/10/04 09:24:37;;;;;;;7.00;2.70;;;17.50;96.50;;;;;;5022493;28;20480;-69
2023/10/04 09:27:04;;;;;;;2.87;1.70;;;17.60;97.40;;;;;;5015628;28;20566;-70
2023/10/04 09:29:32;;;;;;;7.00;3.00;;;17.70;96.70;;;;;;5014631;28;20469;-71
2023/10/04 09:31:59;;;;;;;33.63;4.07;;;;;;;;;;5010006;28;20854;-69
2023/10/04 09:34:28;;;;;;;4.63;2.53;;;17.60;96.00;;;;;;5012439;28;20983;-70
2023/10/04 09:36:55;;;;;;;5.37;3.10;;;17.70;97.10;;;;;;5011130;28;20873;-70
2023/10/04 09:39:26;;;;;;;6.77;2.73;;;17.60;96.50;;;;;;4988011;28;20491;-71
2023/10/04 09:41:55;;;;;;;4.50;1.43;;;17.70;96.50;;;;;;5011093;28;21217;-69
2023/10/04 09:44:26;;;;;;;3.23;1.67;;;17.60;96.60;;;;;;5007384;28;20467;-69
2023/10/04 09:46:57;;;;;;;5.93;2.10;;;17.70;96.20;;;;;;5009022;28;20994;-70
2023/10/04 09:49:26;;;;;;;9.53;1.60;;;17.80;96.50;;;;;;5014071;28;20476;-70
2023/10/04 09:51:56;;;;;;;7.00;2.03;;;17.90;96.80;;;;;;5008890;28;20651;-70
2023/10/04 09:54:25;;;;;;;5.23;2.07;;;17.80;96.30;;;;;;5004086;28;20919;-66
2023/10/04 09:56:53;;;;;;;4.67;1.53;;;17.60;96.30;;;;;;5010915;28;20884;-64
2023/10/04 09:59:23;;;;;;;2.73;1.73;;;17.80;97.60;;;;;;5022694;28;20480;-66
2023/10/04 10:01:55;;;;;;;4.43;1.87;;;18.00;97.60;;;;;;5015864;28;20477;-65
2023/10/04 10:04:27;;;;;;;13.90;1.77;;;18.30;96.10;;;;;;5012479;28;20477;-70
2023/10/04 10:07:09;;;;;;;12.00;1.80;;;18.70;95.70;;;;;;5014404;28;20485;-69
2023/10/04 10:09:51;;;;;;;9.23;2.30;;;19.00;96.70;;;;;;5017391;28;20480;-70
2023/10/04 10:12:17;;;;;;;5.47;2.30;;;19.20;96.00;;;;;;5013618;28;20484;-69
2023/10/04 10:14:46;;;;;;;21.27;2.90;;;19.60;95.40;;;;;;5030544;28;20961;-64
2023/10/04 10:17:17;;;;;;;4.87;2.30;;;19.40;94.90;;;;;;5001278;28;20900;-64
2023/10/04 10:19:44;;;;;;;5.40;1.97;;;19.10;93.90;;;;;;5009095;28;20468;-64
2023/10/04 10:22:15;;;;;;;3.80;1.90;;;18.90;94.70;;;;;;5017243;28;20527;-65
2023/10/04 10:24:45;;;;;;;4.67;1.90;;;19.00;94.90;;;;;;5013694;28;20492;-66
2023/10/04 10:27:17;;;;;;;9.23;1.97;;;19.20;94.80;;;;;;5015663;28;20485;-65
2023/10/04 10:29:44;;;;;;;7.17;1.37;;;19.10;95.20;;;;;;5017554;28;20496;-65
2023/10/04 10:32:14;;;;;;;6.13;2.10;;;19.10;94.00;;;;;;5015144;28;20472;-67
2023/10/04 10:34:42;;;;;;;7.30;1.43;;;19.10;94.80;;;;;;5018158;28;20480;-64
2023/10/04 10:37:10;;;;;;;12.33;3.00;;;18.90;94.70;;;;;;5017045;28;20492;-65
2023/10/04 10:39:45;;;;;;;2.90;1.60;;;18.70;94.10;;;;;;5019598;28;20476;-64
2023/10/04 10:42:14;;;;;;;25.77;2.27;;;18.60;94.40;;;;;;5019538;28;20480;-64
2023/10/04 10:44:41;;;;;;;7.00;1.30;;;18.70;93.90;;;;;;5018560;28;20586;-65
2023/10/04 10:47:19;;;;;;;5.87;1.90;;;18.60;93.90;;;;;;5024852;28;20699;-63
2023/10/04 10:49:58;;;;;;;5.50;1.60;;;18.50;94.00;;;;;;5012768;28;20491;-65
2023/10/04 10:52:33;;;;;;;5.67;1.73;;;18.50;93.70;;;;;;5004668;28;20480;-65
2023/10/04 10:55:05;;;;;;;11.40;1.97;;;18.70;93.30;;;;;;5019472;28;20504;-69
2023/10/04 10:57:33;;;;;;;5.83;1.93;;;19.00;94.40;;;;;;5020795;28;20983;-67
2023/10/04 11:00:11;;;;;;;4.70;1.43;;;19.00;92.40;;;;;;5020876;28;20477;-67
2023/10/04 11:02:38;;;;;;;6.77;1.57;;;19.20;92.60;;;;;;5017034;28;20476;-70
2023/10/04 11:05:07;;;;;;;3.03;1.30;;;19.50;93.50;;;;;;5018788;28;20481;-64
2023/10/04 11:07:34;;;;;;;5.30;1.00;;;19.10;92.20;;;;;;5019030;28;20476;-64
2023/10/04 11:10:03;;;;;;;8.10;1.63;;;19.10;92.50;;;;;;5020476;28;20472;-65
2023/10/04 11:12:34;;;;;;;2.13;1.17;;;19.00;92.20;;;;;;5018616;28;20484;-64
2023/10/04 11:15:01;;;;;;;3.53;1.67;;;19.00;91.00;;;;;;5016630;28;20582;-68
2023/10/04 11:17:29;;;;;;;11.47;1.70;;;19.30;91.40;;;;;;5018938;28;20504;-68
2023/10/04 11:19:56;;;;;;;17.53;2.23;;;19.20;91.20;;;;;;5007205;28;20487;-69
2023/10/04 11:22:23;;;;;;;9.13;1.63;;;19.20;90.80;;;;;;5018870;28;20480;-69
2023/10/04 11:24:50;;;;;;;2.73;1.60;;;19.30;91.10;;;;;;5017067;28;20580;-69
2023/10/04 11:27:23;;;;;;;4.93;1.73;;;19.80;91.00;;;;;;5015861;28;20507;-70
2023/10/04 11:29:50;;;;;;;2.97;1.17;;;19.90;90.00;;;;;;5015405;28;20695;-70
2023/10/04 11:32:17;;;;;;;11.27;2.60;;;20.00;87.30;;;;;;5021196;28;21320;-69
2023/10/04 11:34:45;;;;;;;6.27;1.60;;;19.90;88.10;;;;;;5018057;28;20472;-69
2023/10/04 11:37:13;;;;;;;4.37;1.30;;;20.00;89.60;;;;;;5008620;28;20582;-68
2023/10/04 11:39:40;;;;;;;4.93;1.40;;;19.90;87.40;;;;;;5019248;28;20493;-70
2023/10/04 11:42:17;;;;;;;4.30;1.70;;;19.90;88.00;;;;;;5030722;28;20517;-68
2023/10/04 11:44:45;;;;;;;7.33;1.50;;;20.20;88.70;;;;;;5017799;28;20491;-69
2023/10/04 11:47:14;;;;;;;10.30;1.70;;;20.20;87.70;;;;;;5015477;28;20771;-68
2023/10/04 11:49:55;;;;;;;17.20;2.50;;;20.30;88.30;;;;;;5019546;28;20485;-68
2023/10/04 11:52:22;;;;;;;7.47;1.40;;;20.30;86.50;;;;;;5019002;28;20492;-69
2023/10/04 11:54:49;;;;;;;3.60;1.63;;;20.20;88.50;;;;;;5018521;28;20485;-69
2023/10/04 11:57:24;;;;;;;19.83;2.07;;;20.30;89.30;;;;;;5020671;28;20480;-69
2023/10/04 11:59:52;;;;;;;9.57;2.60;;;20.10;87.10;;;;;;5019103;28;20511;-69
2023/10/04 12:02:22;;;;;;;4.77;1.80;;;19.80;87.10;;;;;;5024267;28;20489;-68
2023/10/04 12:04:49;;;;;;;8.80;2.17;;;19.60;90.10;;;;;;5018900;28;20484;-67
2023/10/04 12:07:16;;;;;;;11.07;2.20;;;19.40;88.90;;;;;;5013092;28;20572;-68
2023/10/04 12:09:42;;;;;;;8.87;2.53;;;19.30;89.00;;;;;;5018924;28;20782;-67
2023/10/04 12:12:09;;;;;;;7.87;2.40;;;19.40;90.00;;;;;;5016110;28;20489;-68
2023/10/04 12:14:36;;;;;;;3.60;1.77;;;19.50;90.00;;;;;;5007782;28;20865;-69
2023/10/04 12:17:06;;;;;;;20.50;3.10;;;19.70;90.90;;;;;;5024463;28;21052;-69
2023/10/04 12:19:34;;;;;;;4.57;1.37;;;19.90;90.40;;;;;;5017625;28;20504;-69
2023/10/04 12:22:02;;;;;;;6.93;2.03;;;20.10;90.50;;;;;;5016997;28;20477;-69
2023/10/04 12:24:30;;;;;;;2.10;1.20;;;20.20;89.60;;;;;;5013043;28;20483;-64
2023/10/04 12:26:59;;;;;;;6.20;1.90;;;20.10;89.60;;;;;;5021354;28;20504;-66
2023/10/04 12:29:27;;;;;;;5.73;1.77;;;20.10;89.10;;;;;;5010642;28;20485;-66
2023/10/04 12:31:55;;;;;;;10.47;2.43;;;20.10;90.00;;;;;;5016253;28;20481;-65
2023/10/04 12:34:24;;;;;;;6.10;2.03;;;19.90;88.60;;;;;;5009704;28;20489;-65
2023/10/04 12:36:52;;;;;;;10.50;2.20;;;19.80;90.00;;;;;;5013531;28;20511;-64
2023/10/04 12:39:21;;;;;;;4.93;2.27;;;19.90;90.00;;;;;;5012690;28;20512;-64
2023/10/04 12:41:49;;;;;;;6.13;2.10;;;19.90;90.60;;;;;;5004554;28;21166;-65
2023/10/04 12:44:16;;;;;;;6.17;1.93;;;20.00;90.50;;;;;;5025408;28;20493;-65
2023/10/04 12:46:43;;;;;;;9.17;2.70;;;;;;;;;;5014527;28;20475;-65
2023/10/04 12:49:09;;;;;;;6.77;1.83;;;20.00;88.40;;;;;;5018279;28;20488;-64
2023/10/04 12:51:38;;;;;;;12.93;2.07;;;19.70;88.50;;;;;;5013477;28;20483;-66
2023/10/04 12:54:06;;;;;;;5.83;2.27;;;19.60;89.90;;;;;;5009780;28;20837;-65
2023/10/04 12:56:33;;;;;;;4.33;1.93;;;19.50;90.60;;;;;;5012974;28;20488;-66
2023/10/04 12:59:03;;;;;;;24.57;3.37;;;19.50;90.20;;;;;;5018663;28;20749;-64